Time;durP1;ratioP1;P1;durP2;ratioP2;P2;SDS_P1;SDS_P2;PMS_P1;PMS_P2;Temp;Humidity;BMP_temperature;BMP_pressure;BME280_temperature;BME280_humidity;BME280_pressure;Samples;Min_cycle;Max_cycle;Signal;HPM_P1;HPM_P2
2022/03/16 00:03:34;;;;;;;20.37;18.27;;;;;;;10.75;60.78;98610.50;8316869;28;20232;-63
2022/03/16 00:07:37;;;;;;;21.07;18.97;;;;;;;10.65;61.31;98606.56;8317856;28;20236;-63
2022/03/16 00:11:41;;;;;;;20.33;18.33;;;;;;;10.70;61.12;98622.78;8317760;28;20240;-62
2022/03/16 00:15:44;;;;;;;20.47;18.47;;;;;;;10.74;60.64;98614.88;8317560;28;20415;-62
2022/03/16 00:19:47;;;;;;;19.20;17.40;;;;;;;10.71;60.65;98627.06;8317573;28;20300;-63
2022/03/16 00:23:50;;;;;;;21.13;19.03;;;;;;;10.48;61.64;98623.50;8317491;28;20426;-63
2022/03/16 00:27:55;;;;;;;19.93;17.87;;;;;;;10.66;60.83;98632.41;8317296;28;20235;-63
2022/03/16 00:31:59;;;;;;;21.17;19.07;;;;;;;10.57;61.11;98630.13;8317341;28;20243;-63
2022/03/16 00:36:02;;;;;;;20.50;18.40;;;;;;;10.69;60.51;98628.88;8316689;28;20233;-63
2022/03/16 00:40:09;;;;;;;20.13;18.13;;;;;;;10.55;60.32;98634.53;8299327;28;20236;-64
2022/03/16 00:44:13;;;;;;;19.87;17.80;;;;;;;10.56;60.49;98641.38;8317139;28;20481;-63
2022/03/16 00:48:17;;;;;;;20.30;18.20;;;;;;;10.55;60.21;98634.53;8316898;28;20229;-63
2022/03/16 00:52:20;;;;;;;19.87;17.83;;;;;;;10.43;60.38;98630.56;8316780;28;20237;-63
2022/03/16 00:56:23;;;;;;;19.00;17.13;;;;;;;10.60;59.96;98637.78;8316458;28;20232;-63
2022/03/16 01:00:27;;;;;;;19.23;17.43;;;;;;;10.47;60.01;98632.19;8316589;28;20244;-62
2022/03/16 01:04:30;;;;;;;18.17;16.47;;;;;;;10.53;59.87;98631.97;8316617;28;20236;-63
2022/03/16 01:08:35;;;;;;;19.13;17.33;;;;;;;10.45;60.23;98630.53;8315261;28;20650;-62
2022/03/16 01:12:38;;;;;;;21.00;17.93;;;;;;;10.54;59.73;98631.06;8243930;28;20238;-63
2022/03/16 01:16:43;;;;;;;19.73;17.73;;;;;;;10.49;60.09;98627.81;8251459;28;20238;-62
2022/03/16 01:20:46;;;;;;;19.47;17.57;;;;;;;10.48;60.16;98630.44;8251120;28;20256;-62
2022/03/16 01:24:49;;;;;;;18.17;16.30;;;;;;;10.50;60.11;98631.22;8250898;28;20241;-62
2022/03/16 01:28:52;;;;;;;18.83;16.93;;;;;;;10.44;60.20;98640.06;8250872;28;20230;-62
2022/03/16 01:32:57;;;;;;;18.17;16.23;;;;;;;10.50;60.00;98636.41;8250888;28;20233;-62
2022/03/16 01:37:00;;;;;;;18.40;16.57;;;;;;;10.56;59.74;98637.03;8250973;28;20230;-62
2022/03/16 01:41:03;;;;;;;18.27;16.57;;;;;;;10.46;59.89;98635.66;8250600;28;20253;-62
2022/03/16 01:45:10;;;;;;;17.50;15.90;;;;;;;10.60;60.02;98640.38;8252119;28;20238;-62
2022/03/16 01:49:14;;;;;;;18.20;16.40;;;;;;;10.55;60.13;98644.88;8251608;28;20230;-62
2022/03/16 01:53:18;;;;;;;17.57;15.77;;;;;;;10.49;60.39;98643.34;8252770;28;20202;-62
2022/03/16 01:57:21;;;;;;;18.30;16.60;;;;;;;10.44;60.87;98641.81;8252384;28;20209;-62
2022/03/16 02:01:24;;;;;;;16.60;15.00;;;;;;;10.52;60.12;98650.16;8252137;28;20210;-62
2022/03/16 02:05:30;;;;;;;16.20;14.80;;;;;;;10.50;59.73;98642.44;8251041;28;20260;-62
2022/03/16 02:09:33;;;;;;;15.93;14.43;;;;;;;10.47;59.71;98650.31;8265113;28;20237;-62
2022/03/16 02:13:37;;;;;;;16.10;14.60;;;;;;;10.49;59.48;98652.84;8315100;28;20535;-63
2022/03/16 02:17:40;;;;;;;16.10;14.50;;;;;;;10.47;59.61;98658.09;8314886;28;20248;-62
2022/03/16 02:21:49;;;;;;;15.47;13.83;;;;;;;10.49;59.49;98647.66;8314845;28;20236;-62
2022/03/16 02:25:54;;;;;;;15.63;14.13;;;;;;;10.45;59.77;98649.53;8314658;28;20409;-62
2022/03/16 02:29:57;;;;;;;15.33;13.93;;;;;;;10.46;59.08;98647.78;8314930;28;20551;-62
2022/03/16 02:34:00;;;;;;;14.50;13.10;;;;;;;10.48;59.88;98649.41;8314476;28;20236;-62
2022/03/16 02:38:03;;;;;;;15.37;13.93;;;;;;;10.47;60.21;98662.41;8314746;28;20228;-62
2022/03/16 02:42:08;;;;;;;15.27;13.83;;;;;;;10.55;58.91;98671.63;8314545;28;20240;-62
2022/03/16 02:46:11;;;;;;;14.47;13.10;;;;;;;10.52;58.66;98669.13;8314506;28;20229;-62
2022/03/16 02:50:16;;;;;;;15.37;14.00;;;;;;;10.40;59.39;98671.28;8314233;28;20244;-62
2022/03/16 02:54:19;;;;;;;16.07;14.47;;;;;;;10.37;59.24;98674.81;8314136;28;20229;-62
2022/03/16 02:58:24;;;;;;;15.73;14.33;;;;;;;10.37;59.57;98685.16;8314126;28;20233;-62
2022/03/16 03:02:27;;;;;;;16.40;14.90;;;;;;;10.23;59.79;98685.56;8319139;28;20236;-62
2022/03/16 03:06:30;;;;;;;15.93;14.50;;;;;;;10.17;59.97;98688.34;8319771;28;20259;-62
2022/03/16 03:10:33;;;;;;;17.37;15.77;;;;;;;10.23;59.74;98688.16;8319198;28;20231;-62
2022/03/16 03:14:38;;;;;;;17.87;16.20;;;;;;;10.22;60.10;98698.56;8319543;28;20247;-62
2022/03/16 03:18:42;;;;;;;16.90;15.30;;;;;;;10.28;59.66;98690.59;8319455;28;20240;-62
2022/03/16 03:22:44;;;;;;;16.70;15.20;;;;;;;10.30;59.56;98712.09;8319250;28;20243;-62
2022/03/16 03:26:47;;;;;;;16.10;14.67;;;;;;;10.27;59.96;98705.28;8319265;28;20237;-62
2022/03/16 03:30:52;;;;;;;16.53;15.03;;;;;;;10.29;59.87;98710.41;8319228;28;20243;-62
2022/03/16 03:34:55;;;;;;;16.30;14.90;;;;;;;10.17;60.07;98714.25;8318997;28;20532;-62
2022/03/16 03:38:58;;;;;;;16.20;14.80;;;;;;;10.14;59.59;98710.00;8318789;28;20240;-62
2022/03/16 03:43:01;;;;;;;16.47;14.97;;;;;;;10.09;58.96;98708.44;8319021;28;20440;-62
2022/03/16 03:47:07;;;;;;;16.93;15.43;;;;;;;9.96;59.53;98707.97;8319044;28;20233;-62
2022/03/16 03:51:10;;;;;;;17.50;15.80;;;;;;;9.95;59.11;98714.88;8318564;28;20566;-63
2022/03/16 03:55:12;;;;;;;17.27;15.57;;;;;;;9.90;58.91;98726.25;8318562;28;20401;-63
2022/03/16 03:59:15;;;;;;;17.53;15.73;;;;;;;9.82;58.85;98725.63;8318989;28;20328;-63
2022/03/16 04:03:25;;;;;;;16.60;15.00;;;;;;;9.81;58.57;98729.13;8318187;28;20236;-62
2022/03/16 04:07:28;;;;;;;16.20;14.70;;;;;;;9.75;58.63;98735.34;8317653;28;20428;-62
2022/03/16 04:11:31;;;;;;;16.13;14.63;;;;;;;9.69;58.28;98736.34;8316343;28;20236;-63
2022/03/16 04:15:34;;;;;;;16.30;14.80;;;;;;;9.66;58.80;98740.75;8317816;28;20232;-62
2022/03/16 04:19:39;;;;;;;15.97;14.50;;;;;;;9.71;58.30;98747.50;8317508;28;20233;-63
2022/03/16 04:23:42;;;;;;;16.60;15.10;;;;;;;9.64;58.40;98753.72;8317168;28;20236;-62
2022/03/16 04:27:45;;;;;;;16.17;14.67;;;;;;;9.68;58.44;98739.81;8317220;28;20259;-62
2022/03/16 04:31:48;;;;;;;15.57;14.17;;;;;;;9.62;57.96;98746.91;8317204;28;20444;-62
2022/03/16 04:35:52;;;;;;;15.63;13.97;;;;;;;9.57;58.07;98745.28;8317287;28;20245;-62
2022/03/16 04:39:55;;;;;;;15.77;14.27;;;;;;;9.59;58.18;98750.41;8316831;28;20228;-62
2022/03/16 04:43:58;;;;;;;15.63;14.13;;;;;;;9.46;58.37;98747.34;8316767;28;20229;-62
2022/03/16 04:48:01;;;;;;;16.47;14.97;;;;;;;9.40;58.08;98752.66;8316650;28;20239;-62
2022/03/16 04:52:11;;;;;;;16.00;14.60;;;;;;;9.36;57.96;98751.03;8316657;28;20245;-62
2022/03/16 04:56:14;;;;;;;15.43;14.03;;;;;;;9.33;57.48;98754.56;8316630;28;20235;-62
2022/03/16 05:00:17;;;;;;;15.87;14.37;;;;;;;9.20;57.50;98754.03;8316385;28;20423;-62
2022/03/16 05:04:20;;;;;;;16.13;14.53;;;;;;;9.14;57.47;98761.97;8316544;28;20559;-62
2022/03/16 05:08:24;;;;;;;15.80;14.40;;;;;;;9.03;57.86;98773.47;8315970;28;20249;-62
2022/03/16 05:12:27;;;;;;;14.47;13.27;;;;;;;8.99;57.30;98783.84;8315970;28;20439;-62
2022/03/16 05:16:30;;;;;;;12.20;11.00;;;;;;;9.01;57.10;98781.25;8316114;28;20255;-62
2022/03/16 05:20:34;;;;;;;12.30;11.17;;;;;;;8.97;57.33;98787.38;8315533;28;20447;-62
2022/03/16 05:24:38;;;;;;;11.50;10.30;;;;;;;8.91;57.06;98795.25;8315667;28;20588;-63
2022/03/16 05:28:42;;;;;;;11.37;10.27;;;;;;;8.87;56.26;98797.09;8315684;28;20539;-62
2022/03/16 05:32:44;;;;;;;12.10;10.80;;;;;;;8.86;56.17;98799.72;8315528;28;20243;-62
2022/03/16 05:36:47;;;;;;;11.20;10.20;;;;;;;8.82;56.04;98805.84;8315500;28;20407;-62
2022/03/16 05:40:52;;;;;;;12.03;10.93;;;;;;;8.68;56.34;98813.88;8315315;28;20413;-62
2022/03/16 05:44:55;;;;;;;13.47;12.27;;;;;;;8.65;56.53;98806.22;8315341;28;20259;-62
2022/03/16 05:48:58;;;;;;;14.77;13.20;;;;;;;8.76;56.23;98810.25;8315456;28;20550;-62
2022/03/16 05:53:03;;;;;;;12.77;9.23;;;;;;;8.72;56.05;98818.09;8315240;28;20229;-62
2022/03/16 05:57:07;;;;;;;7.33;6.73;;;;;;;8.70;55.36;98837.94;8314490;28;20228;-62
2022/03/16 06:01:10;;;;;;;6.50;6.00;;;;;;;8.67;55.12;98836.28;8314417;28;20243;-62
2022/03/16 06:05:14;;;;;;;7.87;7.20;;;;;;;8.72;55.58;98833.59;8305418;28;20228;-62
2022/03/16 06:09:17;;;;;;;20.00;7.00;;;;;;;8.65;56.50;98848.38;8294485;28;20245;-63
2022/03/16 06:13:22;;;;;;;9.80;5.93;;;;;;;8.72;55.58;98847.38;8298132;28;20237;-63
2022/03/16 06:17:25;;;;;;;7.20;6.53;;;;;;;8.74;55.89;98849.91;8293167;28;20241;-62
2022/03/16 06:21:28;;;;;;;6.27;5.77;;;;;;;8.94;54.88;98854.59;8292293;28;20233;-63
2022/03/16 06:25:31;;;;;;;7.40;6.40;;;;;;;8.96;54.10;98863.16;8281580;28;20225;-64
2022/03/16 06:29:36;;;;;;;7.60;7.00;;;;;;;8.82;55.25;98871.25;8281765;28;20237;-63
2022/03/16 06:33:39;;;;;;;8.70;7.93;;;;;;;8.84;55.42;98878.97;8281680;28;20237;-63
2022/03/16 06:37:42;;;;;;;8.40;7.60;;;;;;;8.73;56.20;98881.78;8287865;28;20566;-63
2022/03/16 06:41:45;;;;;;;8.70;7.90;;;;;;;8.76;56.42;98887.72;8288191;28;20244;-63
2022/03/16 06:45:49;;;;;;;8.63;7.83;;;;;;;8.82;56.45;98886.75;8287907;28;20568;-63
2022/03/16 06:49:52;;;;;;;9.53;8.70;;;;;;;8.87;56.86;98887.50;8287861;28;20233;-63
2022/03/16 06:53:55;;;;;;;8.80;7.90;;;;;;;9.08;56.44;98882.69;8287974;28;20237;-63
2022/03/16 06:57:58;;;;;;;7.93;7.33;;;;;;;9.08;56.49;98885.28;8287995;28;20233;-63
2022/03/16 07:02:02;;;;;;;9.20;8.40;;;;;;;9.03;56.75;98882.81;8302021;28;20235;-63
2022/03/16 07:06:08;;;;;;;11.67;9.20;;;;;;;9.07;57.92;98884.44;8320349;28;20233;-63
2022/03/16 07:10:11;;;;;;;9.97;8.97;;;;;;;9.16;58.18;98878.22;8319720;28;20236;-63
2022/03/16 07:14:32;;;;;;;10.77;9.83;;;;;;;9.18;58.49;98882.44;8319454;28;20239;-63
2022/03/16 07:18:37;;;;;;;9.90;8.93;;;;;;;9.41;57.73;98881.03;8319666;28;20239;-63
2022/03/16 07:22:41;;;;;;;12.97;11.77;;;;;;;9.52;57.65;98883.34;8316543;28;20229;-63
2022/03/16 07:27:02;;;;;;;17.17;14.50;;;;;;;9.62;57.10;98883.97;8302492;28;20241;-63
2022/03/16 07:31:05;;;;;;;17.00;15.20;;;;;;;9.69;57.61;98894.13;8302149;28;20229;-63
2022/03/16 07:35:10;;;;;;;16.40;14.80;;;;;;;9.92;57.79;98895.25;8302074;28;20232;-63
2022/03/16 07:39:13;;;;;;;17.40;14.53;;;;;;;10.19;57.86;98898.81;8301565;28;20421;-64
2022/03/16 07:43:16;;;;;;;16.70;14.50;;;;;;;10.56;57.19;98903.81;8301873;28;20233;-63
2022/03/16 07:47:19;;;;;;;16.13;14.43;;;;;;;10.97;56.35;98903.47;8297767;28;20232;-63
2022/03/16 07:51:38;;;;;;;17.73;14.73;;;;;;;11.46;55.46;98895.84;8285478;28;20297;-63
2022/03/16 07:55:41;;;;;;;16.13;14.53;;;;;;;12.00;54.60;98905.28;8285371;28;20237;-63
2022/03/16 07:59:44;;;;;;;16.67;15.03;;;;;;;12.25;54.44;98901.81;8285732;28;20282;-63
2022/03/16 08:03:48;;;;;;;17.20;15.43;;;;;;;12.25;54.28;98910.47;8314383;28;20236;-63
2022/03/16 08:07:52;;;;;;;19.53;16.40;;;;;;;11.65;55.69;98904.75;8317635;28;20251;-61
2022/03/16 08:11:55;;;;;;;17.40;15.60;;;;;;;11.96;54.71;98902.88;8317826;28;20233;-61
2022/03/16 08:15:58;;;;;;;17.10;15.60;;;;;;;11.50;56.00;98902.66;8318120;28;20224;-61
2022/03/16 08:20:01;;;;;;;16.10;14.60;;;;;;;12.44;54.21;98904.59;8317782;28;20229;-61
2022/03/16 08:24:06;;;;;;;15.77;14.37;;;;;;;12.15;53.50;98901.31;8317377;28;20235;-61
2022/03/16 08:28:09;;;;;;;15.40;13.90;;;;;;;12.45;53.15;98901.09;8317562;28;20229;-61
2022/03/16 08:32:12;;;;;;;16.93;15.23;;;;;;;12.26;52.86;98904.38;8317335;28;20232;-62
2022/03/16 08:36:15;;;;;;;16.13;14.63;;;;;;;12.05;52.42;98902.53;8317190;28;20229;-62
2022/03/16 08:40:20;;;;;;;15.90;14.40;;;;;;;12.08;52.13;98908.47;8316900;28;20234;-61
2022/03/16 08:44:23;;;;;;;15.70;14.20;;;;;;;12.56;50.20;98906.72;8317304;28;20240;-61
2022/03/16 08:48:26;;;;;;;16.63;15.03;;;;;;;12.71;51.59;98910.50;8317330;28;20237;-61
2022/03/16 08:52:29;;;;;;;17.50;15.47;;;;;;;13.32;48.18;98909.88;8316557;28;20436;-61
2022/03/16 08:56:34;;;;;;;16.33;14.70;;;;;;;13.68;47.53;98917.09;8316012;28;20228;-61
2022/03/16 09:00:37;;;;;;;18.23;14.67;;;;;;;14.15;47.35;98909.00;8316271;28;20415;-62
2022/03/16 09:04:40;;;;;;;17.63;15.57;;;;;;;13.48;48.55;98915.31;8316144;28;20243;-61
2022/03/16 09:08:43;;;;;;;19.87;15.37;;;;;;;13.06;50.14;98914.34;8315852;28;20237;-61
2022/03/16 09:12:47;;;;;;;17.57;15.57;;;;;;;12.58;50.35;98920.50;8316047;28;20243;-61
2022/03/16 09:16:50;;;;;;;17.87;16.07;;;;;;;12.44;50.79;98900.25;8315968;28;20243;-63
2022/03/16 09:20:54;;;;;;;17.87;15.97;;;;;;;12.96;50.15;98902.59;8315584;28;20232;-61
2022/03/16 09:24:57;;;;;;;17.40;15.80;;;;;;;12.73;50.56;98913.88;8315568;28;20242;-61
2022/03/16 09:29:01;;;;;;;17.67;15.97;;;;;;;13.29;49.94;98908.22;8315602;28;20286;-61
2022/03/16 09:33:05;;;;;;;17.20;15.40;;;;;;;14.01;50.05;98907.00;8315412;28;20244;-61
2022/03/16 09:37:09;;;;;;;18.20;16.33;;;;;;;13.75;48.59;98902.06;8315399;28;20243;-61
2022/03/16 09:41:12;;;;;;;18.27;16.20;;;;;;;12.97;51.20;98914.72;8315295;28;20229;-61
2022/03/16 09:45:20;;;;;;;17.83;16.23;;;;;;;12.41;51.55;98908.13;8315203;28;20562;-61
2022/03/16 09:49:23;;;;;;;17.00;15.37;;;;;;;14.89;47.45;98907.44;8314962;28;20241;-61
2022/03/16 09:53:27;;;;;;;18.03;16.07;;;;;;;13.08;50.04;98901.28;8315106;28;20335;-61
2022/03/16 09:57:30;;;;;;;16.63;14.93;;;;;;;13.78;49.68;98907.13;8314731;28;20241;-61
2022/03/16 10:01:35;;;;;;;16.73;15.03;;;;;;;13.84;49.47;98899.91;8312319;28;20224;-61
2022/03/16 10:05:39;;;;;;;17.83;16.13;;;;;;;13.71;48.76;98900.47;8314459;28;20236;-58
2022/03/16 10:14:07;;;;;;;20.97;16.30;;;;;;;14.24;45.82;98903.38;8314600;28;20438;-58
2022/03/16 10:18:15;;;;;;;17.53;15.60;;;;;;;14.25;45.79;98909.44;8314503;28;20229;-58
2022/03/16 10:22:26;;;;;;;17.83;15.80;;;;;;;14.46;45.47;98908.47;8314941;28;20232;-58
2022/03/16 10:26:29;;;;;;;16.43;14.73;;;;;;;14.61;46.59;98903.53;8314876;28;20240;-58
2022/03/16 10:30:32;;;;;;;19.77;17.67;;;;;;;14.68;44.62;98898.84;8312010;28;20619;-59
2022/03/16 10:34:49;;;;;;;18.67;16.77;;;;;;;15.05;44.71;98904.03;8314250;28;20264;-58
2022/03/16 10:38:53;;;;;;;19.23;17.37;;;;;;;14.28;46.58;98904.94;8314424;28;20239;-58
2022/03/16 10:47:19;;;;;;;19.70;16.60;;;;;;;14.38;46.99;98888.91;8297213;28;20238;-58
2022/03/16 10:51:23;;;;;;;21.33;17.23;;;;;;;14.32;45.40;98881.34;8294361;28;20235;-58
2022/03/16 10:55:43;;;;;;;20.53;17.67;;;;;;;14.48;44.60;98877.13;8296409;28;20225;-58
2022/03/16 10:59:48;;;;;;;19.50;17.57;;;;;;;15.03;44.50;98879.78;8296993;28;20535;-58
2022/03/16 11:03:52;;;;;;;18.80;16.90;;;;;;;14.84;44.81;98876.38;8297811;28;20233;-57
2022/03/16 11:07:56;;;;;;;18.70;16.80;;;;;;;15.44;42.90;98870.88;8298143;28;20244;-57
2022/03/16 11:16:21;;;;;;;18.20;16.40;;;;;;;15.33;44.12;98860.13;8296221;28;20229;-58
2022/03/16 11:20:25;;;;;;;19.43;17.37;;;;;;;14.87;44.45;98844.94;8297108;28;20237;-58
2022/03/16 11:24:33;;;;;;;19.93;16.47;;;;;;;15.10;45.04;98840.34;8302556;28;20235;-58
2022/03/16 11:28:50;;;;;;;18.00;16.20;;;;;;;14.98;44.97;98839.19;8299277;28;20517;-58
2022/03/16 11:32:56;;;;;;;18.63;16.63;;;;;;;15.38;43.66;98829.41;8286929;28;20263;-58
2022/03/16 11:37:04;;;;;;;17.97;16.07;;;;;;;15.34;44.10;98827.88;8286628;28;20225;-58
2022/03/16 11:41:09;;;;;;;18.97;16.50;;;;;;;15.22;43.50;98816.28;8286276;28;20432;-58
2022/03/16 11:45:37;;;;;;;20.30;16.87;;;;;;;15.11;43.62;98821.19;8285632;28;20432;-58
2022/03/16 11:49:44;;;;;;;18.77;16.87;;;;;;;14.67;44.83;98830.22;8285946;28;20247;-58
2022/03/16 11:54:14;;;;;;;18.70;16.77;;;;;;;15.01;43.60;98833.84;8285997;28;20548;-58
2022/03/16 11:58:30;;;;;;;18.30;16.37;;;;;;;14.99;43.18;98820.03;8251598;28;20240;-58
2022/03/16 12:02:32;;;;;;;19.43;17.10;;;;;;;15.27;44.05;98810.81;8303851;28;20312;-57
2022/03/16 12:06:54;;;;;;;19.93;16.93;;;;;;;14.76;45.86;98818.53;8317596;28;20300;-57
2022/03/16 12:15:26;;;;;;;20.60;16.57;;;;;;;15.18;44.03;98793.88;8316969;28;20239;-58
2022/03/16 12:19:30;;;;;;;19.83;16.90;;;;;;;14.98;43.56;98782.69;8317643;28;20237;-58
2022/03/16 12:23:58;;;;;;;19.43;17.27;;;;;;;15.32;43.18;98785.34;8316755;28;20426;-59
2022/03/16 12:32:27;;;;;;;18.10;15.80;;;;;;;14.96;42.96;98783.66;8316689;28;20232;-59
2022/03/16 12:36:32;;;;;;;23.57;14.20;;;;;;;15.39;40.80;98784.13;8317209;28;20551;-60
2022/03/16 12:42:30;;;;;;;15.83;14.33;;;;;;;15.11;40.86;98789.88;8316637;28;20229;-59
2022/03/16 12:45:09;;;;;;;16.57;14.87;;;;;;;14.71;40.64;98776.19;8316977;28;20229;-59
2022/03/16 12:49:15;;;;;;;18.13;14.83;;;;;;;14.66;41.37;98779.03;8317130;28;20248;-59
2022/03/16 12:53:43;;;;;;;16.00;14.40;;;;;;;14.57;42.58;98772.47;8316645;28;20233;-59
2022/03/16 12:57:55;;;;;;;15.63;13.90;;;;;;;14.64;41.07;98766.06;8316102;28;20225;-59
2022/03/16 13:02:01;;;;;;;14.53;13.10;;;;;;;15.61;39.87;98771.66;8316141;28;20414;-58
2022/03/16 13:06:16;;;;;;;17.67;13.67;;;;;;;15.08;40.51;98763.94;8316481;28;20309;-59
2022/03/16 13:10:19;;;;;;;15.30;13.53;;;;;;;15.57;40.02;98751.84;8316135;28;20240;-59
2022/03/16 13:14:23;;;;;;;14.60;13.20;;;;;;;15.87;39.93;98743.34;8316026;28;20540;-59
2022/03/16 13:18:30;;;;;;;14.90;13.40;;;;;;;15.67;39.53;98747.00;8315767;28;20430;-59
2022/03/16 13:22:34;;;;;;;14.97;13.27;;;;;;;15.85;38.17;98746.97;8315421;28;20415;-59
2022/03/16 13:26:39;;;;;;;14.83;12.33;;;;;;;16.47;37.24;98744.44;8315395;28;20243;-59
2022/03/16 13:30:43;;;;;;;15.67;13.53;;;;;;;15.72;39.28;98752.78;8315365;28;20237;-59
2022/03/16 13:34:49;;;;;;;14.67;13.27;;;;;;;16.10;37.82;98744.72;8315559;28;20870;-59
2022/03/16 13:38:53;;;;;;;14.43;12.70;;;;;;;16.29;37.44;98746.31;8315684;28;20229;-59
2022/03/16 13:43:04;;;;;;;13.30;11.90;;;;;;;16.96;37.27;98739.06;8314982;28;20233;-58
2022/03/16 13:47:23;;;;;;;15.03;13.60;;;;;;;15.85;38.13;98752.19;8314264;28;20233;-59
2022/03/16 13:51:27;;;;;;;15.00;13.40;;;;;;;16.26;36.65;98738.63;8312345;28;20241;-59
2022/03/16 13:55:35;;;;;;;14.53;13.10;;;;;;;16.37;37.54;98731.03;8314802;28;20236;-59
2022/03/16 13:59:38;;;;;;;15.97;13.10;;;;;;;16.59;37.54;98728.91;8314442;28;20315;-59
2022/03/16 14:04:03;;;;;;;15.00;12.87;;;;;;;16.42;37.21;98722.00;8314539;28;20232;-59
2022/03/16 14:08:11;;;;;;;14.80;12.97;;;;;;;16.56;37.55;98723.88;8314581;28;20300;-59
2022/03/16 14:12:16;;;;;;;14.50;12.77;;;;;;;16.80;36.83;98726.00;8302870;28;20453;-59
2022/03/16 14:16:19;;;;;;;15.33;13.73;;;;;;;16.34;37.63;98731.22;8297105;28;20240;-59
2022/03/16 14:20:30;;;;;;;14.27;12.67;;;;;;;16.11;37.96;98727.28;8297687;28;20445;-59
2022/03/16 14:24:34;;;;;;;13.70;12.30;;;;;;;15.86;37.79;98723.38;8296889;28;20220;-59
2022/03/16 14:28:39;;;;;;;13.40;12.10;;;;;;;15.96;37.23;98726.34;8297377;28;20233;-59
2022/03/16 14:32:42;;;;;;;15.27;12.50;;;;;;;16.00;37.88;98707.78;8297114;28;20501;-59
2022/03/16 14:36:45;;;;;;;14.07;12.67;;;;;;;15.75;37.98;98716.13;8296895;28;20535;-59
2022/03/16 14:41:08;;;;;;;14.73;12.13;;;;;;;15.92;37.71;98728.28;8297253;28;20232;-60
2022/03/16 14:45:14;;;;;;;14.63;12.93;;;;;;;15.87;37.98;98714.63;8296916;28;20504;-59
2022/03/16 14:49:18;;;;;;;14.07;12.63;;;;;;;15.43;38.95;98718.63;8307123;28;20235;-59
2022/03/16 14:53:22;;;;;;;14.83;13.23;;;;;;;15.52;38.69;98709.47;8314070;28;20241;-59
2022/03/16 14:57:25;;;;;;;13.57;12.00;;;;;;;15.14;39.44;98701.88;8318288;28;20256;-59
2022/03/16 15:01:30;;;;;;;13.30;11.90;;;;;;;15.17;38.79;98693.91;8300146;28;20528;-58
2022/03/16 15:05:33;;;;;;;11.93;10.83;;;;;;;15.01;39.33;98685.16;8302540;28;20229;-59
2022/03/16 15:09:37;;;;;;;13.73;11.93;;;;;;;15.05;39.54;98682.31;8302756;28;20252;-58
2022/03/16 15:13:40;;;;;;;13.43;12.00;;;;;;;14.12;41.28;98681.69;8302561;28;20434;-58
2022/03/16 15:17:45;;;;;;;13.47;12.00;;;;;;;14.23;40.54;98661.19;8294850;28;20244;-59
2022/03/16 15:21:48;;;;;;;12.40;11.27;;;;;;;14.14;41.18;98670.25;8293490;28;20328;-58
2022/03/16 15:25:53;;;;;;;13.60;12.23;;;;;;;14.56;41.35;98653.47;8302160;28;20238;-58
2022/03/16 15:29:58;;;;;;;13.77;12.23;;;;;;;14.37;41.42;98650.09;8297451;28;20512;-58
2022/03/16 15:34:02;;;;;;;15.43;12.03;;;;;;;14.29;41.30;98642.63;8292821;28;20248;-58
2022/03/16 15:38:05;;;;;;;18.53;13.00;;;;;;;14.02;41.84;98629.19;8286355;28;20225;-58
2022/03/16 15:46:29;;;;;;;13.13;11.70;;;;;;;14.28;41.44;98654.00;8318896;28;20244;-61
2022/03/16 15:50:54;;;;;;;15.07;11.53;;;;;;;14.28;42.07;98659.22;8318544;28;20256;-61
2022/03/16 15:54:59;;;;;;;15.07;11.30;;;;;;;14.22;41.58;98656.88;8318538;28;20236;-62
2022/03/16 15:59:01;;;;;;;12.70;11.40;;;;;;;14.58;41.04;98667.31;8318879;28;20237;-61
2022/03/16 16:03:06;;;;;;;13.83;11.00;;;;;;;14.74;41.34;98669.16;8318569;28;20236;-61
2022/03/16 16:07:17;;;;;;;12.97;11.30;;;;;;;14.38;42.09;98662.22;8317462;28;20236;-60
2022/03/16 16:11:20;;;;;;;16.17;13.50;;;;;;;14.15;42.31;98658.09;8318096;28;20245;-60
2022/03/16 16:15:23;;;;;;;20.17;14.57;;;;;;;14.10;42.52;98660.91;8302781;28;20253;-61
2022/03/16 16:19:26;;;;;;;16.03;14.17;;;;;;;14.12;43.03;98659.09;8287120;28;20234;-61
2022/03/16 16:23:31;;;;;;;16.90;13.33;;;;;;;14.06;43.08;98660.22;8317068;28;20411;-60
2022/03/16 16:27:36;;;;;;;17.80;13.97;;;;;;;13.78;43.73;98655.44;8315909;28;20247;-61
2022/03/16 16:31:39;;;;;;;17.67;13.40;;;;;;;13.89;43.77;98654.97;8317670;28;20240;-63
2022/03/16 16:35:42;;;;;;;20.77;13.10;;;;;;;13.65;44.26;98656.94;8317577;28;20241;-60
2022/03/16 16:39:47;;;;;;;17.83;12.90;;;;;;;13.73;44.29;98652.25;8317569;28;20803;-60
2022/03/16 16:43:50;;;;;;;14.77;13.10;;;;;;;13.67;44.53;98650.75;8317135;28;20239;-61
2022/03/16 16:47:53;;;;;;;16.00;12.33;;;;;;;13.45;44.92;98642.25;8317132;28;20244;-60
2022/03/16 16:51:57;;;;;;;16.13;12.07;;;;;;;13.55;44.24;98645.28;8316784;28;20229;-61
2022/03/16 16:56:02;;;;;;;13.50;10.27;;;;;;;13.43;43.85;98650.13;8304437;28;20236;-60
2022/03/16 17:00:07;;;;;;;12.73;10.63;;;;;;;13.73;43.16;98656.59;8287168;28;20226;-60
2022/03/16 17:04:11;;;;;;;11.87;10.67;;;;;;;13.67;43.35;98665.53;8287713;28;20236;-60
2022/03/16 17:08:16;;;;;;;13.50;10.47;;;;;;;13.77;43.19;98671.16;8283425;28;20285;-60
2022/03/16 17:12:20;;;;;;;14.00;10.43;;;;;;;13.87;43.09;98686.28;8307773;28;20602;-60
2022/03/16 17:16:23;;;;;;;13.57;10.40;;;;;;;13.59;43.24;98683.25;8315978;28;20252;-60
2022/03/16 17:20:29;;;;;;;13.43;10.97;;;;;;;13.64;43.49;98691.69;8315800;28;20468;-60
2022/03/16 17:24:32;;;;;;;13.50;10.37;;;;;;;13.74;43.38;98692.13;8315402;28;20228;-60
2022/03/16 17:28:37;;;;;;;12.77;11.10;;;;;;;13.76;43.30;98688.53;8297400;28;20243;-60
2022/03/16 17:32:40;;;;;;;16.70;12.10;;;;;;;13.55;43.93;98686.91;8282987;28;20552;-60
2022/03/16 17:36:43;;;;;;;14.43;11.67;;;;;;;13.53;44.01;98686.97;8282685;28;20241;-60
2022/03/16 17:40:46;;;;;;;14.17;10.83;;;;;;;13.66;43.87;98692.47;8282932;28;20434;-60
2022/03/16 17:49:12;;;;;;;16.97;12.67;;;;;;;13.45;44.40;98676.91;8282740;28;20422;-61
2022/03/16 17:53:16;;;;;;;15.07;12.27;;;;;;;13.67;44.41;98697.63;8282728;28;20229;-61
2022/03/16 17:57:19;;;;;;;17.97;12.03;;;;;;;13.54;44.09;98698.25;8313845;28;20557;-62
2022/03/16 18:01:24;;;;;;;15.67;12.80;;;;;;;13.21;44.83;98694.44;8314803;28;20239;-61
2022/03/16 18:05:27;;;;;;;15.40;12.43;;;;;;;13.46;45.18;98694.22;8314689;28;20243;-61
2022/03/16 18:09:30;;;;;;;16.70;13.17;;;;;;;13.53;44.47;98692.16;8314602;28;20236;-61
2022/03/16 18:13:33;;;;;;;14.80;13.07;;;;;;;13.55;44.54;98692.09;8314567;28;20228;-62
2022/03/16 18:17:38;;;;;;;24.50;17.77;;;;;;;13.22;45.12;98683.09;8314461;28;20240;-61
2022/03/16 18:22:23;;;;;;;24.37;18.10;;;;;;;13.10;45.42;98686.25;8313225;28;20236;-61
2022/03/16 18:26:05;;;;;;;18.73;16.83;;;;;;;12.74;46.40;98689.50;8281890;28;20236;-60
2022/03/16 18:30:09;;;;;;;17.43;14.90;;;;;;;13.12;45.58;98697.41;8282174;28;20555;-60
2022/03/16 18:34:14;;;;;;;18.07;16.17;;;;;;;12.97;45.67;98691.13;8288407;28;20236;-60
2022/03/16 18:38:17;;;;;;;20.50;14.97;;;;;;;12.84;46.21;98706.38;8288062;28;20233;-60
2022/03/16 18:42:21;;;;;;;17.27;14.10;;;;;;;12.65;46.66;98705.47;8288518;28;20413;-60
2022/03/16 18:46:23;;;;;;;16.27;14.50;;;;;;;12.29;47.62;98693.88;8288232;28;20241;-61
2022/03/16 18:50:29;;;;;;;17.53;14.57;;;;;;;12.07;47.87;98686.09;8298965;28;20234;-60
2022/03/16 18:54:32;;;;;;;17.63;15.30;;;;;;;12.12;48.37;98693.69;8296870;28;20377;-62
2022/03/16 18:58:36;;;;;;;18.97;16.90;;;;;;;11.79;49.17;98704.44;8304412;28;20225;-63
2022/03/16 19:02:39;;;;;;;18.30;16.23;;;;;;;11.91;48.67;98708.34;8308208;28;20290;-60
2022/03/16 19:06:44;;;;;;;20.23;18.03;;;;;;;11.93;48.77;98703.94;8319941;28;20244;-60
2022/03/16 19:13:45;;;;;;;23.03;19.30;;;;;;;11.92;48.50;98708.31;8319464;28;20298;-60
2022/03/16 19:15:10;;;;;;;19.97;17.83;;;;;;;11.97;48.58;98710.72;8302772;28;20236;-60
2022/03/16 19:19:18;;;;;;;18.17;16.17;;;;;;;12.08;48.10;98728.47;8302591;28;20348;-60
2022/03/16 19:23:22;;;;;;;21.73;16.27;;;;;;;11.96;48.65;98735.00;8302615;28;20232;-61